地図

経路データ

SID SEASON NUMBER BASIN SUBBASIN NAME ISO_TIME NATURE LAT LON WMO_WIND WMO_PRES WMO_AGENCY TRACK_TYPE DIST2LAND LANDFALL IFLAG USA_AGENCY USA_ATCF_ID USA_LAT USA_LON USA_RECORD USA_STATUS USA_WIND USA_PRES USA_SSHS USA_R34_NE USA_R34_SE USA_R34_SW USA_R34_NW USA_R50_NE USA_R50_SE USA_R50_SW USA_R50_NW USA_R64_NE USA_R64_SE USA_R64_SW USA_R64_NW USA_POCI USA_ROCI USA_RMW USA_EYE TOKYO_LAT TOKYO_LON TOKYO_GRADE TOKYO_WIND TOKYO_PRES TOKYO_R50_DIR TOKYO_R50_LONG TOKYO_R50_SHORT TOKYO_R30_DIR TOKYO_R30_LONG TOKYO_R30_SHORT TOKYO_LAND CMA_LAT CMA_LON CMA_CAT CMA_WIND CMA_PRES HKO_LAT HKO_LON HKO_CAT HKO_WIND HKO_PRES NEWDELHI_LAT NEWDELHI_LON NEWDELHI_GRADE NEWDELHI_WIND NEWDELHI_PRES NEWDELHI_CI NEWDELHI_DP NEWDELHI_POCI REUNION_LAT REUNION_LON REUNION_TYPE REUNION_WIND REUNION_PRES REUNION_TNUM REUNION_CI REUNION_RMW REUNION_R34_NE REUNION_R34_SE REUNION_R34_SW REUNION_R34_NW REUNION_R50_NE REUNION_R50_SE REUNION_R50_SW REUNION_R50_NW REUNION_R64_NE REUNION_R64_SE REUNION_R64_SW REUNION_R64_NW BOM_LAT BOM_LON BOM_TYPE BOM_WIND BOM_PRES BOM_TNUM BOM_CI BOM_RMW BOM_R34_NE BOM_R34_SE BOM_R34_SW BOM_R34_NW BOM_R50_NE BOM_R50_SE BOM_R50_SW BOM_R50_NW BOM_R64_NE BOM_R64_SE BOM_R64_SW BOM_R64_NW BOM_ROCI BOM_POCI BOM_EYE BOM_POS_METHOD BOM_PRES_METHOD NADI_LAT NADI_LON NADI_CAT NADI_WIND NADI_PRES WELLINGTON_LAT WELLINGTON_LON WELLINGTON_WIND WELLINGTON_PRES DS824_LAT DS824_LON DS824_STAGE DS824_WIND DS824_PRES TD9636_LAT TD9636_LON TD9636_STAGE TD9636_WIND TD9636_PRES TD9635_LAT TD9635_LON TD9635_WIND TD9635_PRES TD9635_ROCI NEUMANN_LAT NEUMANN_LON NEUMANN_CLASS NEUMANN_WIND NEUMANN_PRES MLC_LAT MLC_LON MLC_CLASS MLC_WIND MLC_PRES USA_GUST BOM_GUST BOM_GUST_PER REUNION_GUST REUNION_GUST_PER USA_SEAHGT USA_SEARAD_NE USA_SEARAD_SE USA_SEARAD_SW USA_SEARAD_NW STORM_SPEED STORM_DIR
1914228N17144 1914 25 WP MM NOT_NAMED 1914-08-16 10:00:00 NR 16.8000 143.700 main 2015 2011 __________O___ -1 16.8000 143.700 7 3 263
1914228N17144 1914 25 WP MM NOT_NAMED 1914-08-16 12:00:00 NR 16.7870 143.587 main 2011 1994 __________P___ -1 16.7870 143.587 7 3 264
1914228N17144 1914 25 WP MM NOT_NAMED 1914-08-16 15:00:00 NR 16.7723 143.403 main 1994 1973 __________P___ -1 16.7723 143.403 7 4 268
1914228N17144 1914 25 WP MM NOT_NAMED 1914-08-16 18:00:00 NR 16.7702 143.184 main 1973 1942 __________P___ -1 16.7702 143.184 7 5 272
1914228N17144 1914 25 WP MM NOT_NAMED 1914-08-16 21:00:00 NR 16.7882 142.908 main 1942 1932 __________P___ -1 16.7882 142.908 7 6 275
1914228N17144 1914 25 WP MM NOT_NAMED 1914-08-16 22:00:00 NR 16.8000 142.800 main 1932 1911 __________O___ -1 16.8000 142.800 4 7 278
1914228N17144 1914 25 WP MM NOT_NAMED 1914-08-17 00:00:00 NR 16.8334 142.557 main 1911 1862 __________P___ -1 16.8334 142.557 4 8 280
1914228N17144 1914 25 WP MM NOT_NAMED 1914-08-17 03:00:00 NR 16.9085 142.135 main 1862 1823 __________P___ -1 16.9085 142.135 4 9 282
1914228N17144 1914 25 WP MM NOT_NAMED 1914-08-17 06:00:00 NR 17.0134 141.664 main 1823 1775 __________P___ -1 17.0134 141.664 4 10 285
1914228N17144 1914 25 WP MM NOT_NAMED 1914-08-17 09:00:00 NR 17.1483 141.168 main 1775 1758 __________P___ -1 17.1483 141.168 4 10 286
1914228N17144 1914 25 WP MM NOT_NAMED 1914-08-17 10:00:00 NR 17.2000 141.000 main 1758 1731 __________O___ -1 17.2000 141.000 4 10 289
1914228N17144 1914 25 WP MM NOT_NAMED 1914-08-17 12:00:00 NR 17.3159 140.663 main 1731 1677 __________P___ -1 17.3159 140.663 4 11 291
1914228N17144 1914 25 WP MM NOT_NAMED 1914-08-17 15:00:00 NR 17.5150 140.144 main 1677 1634 __________P___ -1 17.5150 140.144 4 11 293
1914228N17144 1914 25 WP MM NOT_NAMED 1914-08-17 18:00:00 NR 17.7277 139.631 main 1634 1593 __________P___ -1 17.7277 139.631 4 10 294
1914228N17144 1914 25 WP MM NOT_NAMED 1914-08-17 21:00:00 NR 17.9352 139.149 main 1593 1587 __________P___ -1 17.9352 139.149 4 10 294
1914228N17144 1914 25 WP MM NOT_NAMED 1914-08-17 22:00:00 NR 18.0000 139.000 main 1587 1562 __________O___ -1 18.0000 139.000 4 9 293
1914228N17144 1914 25 WP MM NOT_NAMED 1914-08-18 00:00:00 NR 18.1004 138.732 main 1562 1538 __________P___ -1 18.1004 138.732 4 8 292
1914228N17144 1914 25 WP MM NOT_NAMED 1914-08-18 03:00:00 NR 18.2386 138.368 main 1538 1509 __________P___ -1 18.2386 138.368 4 7 293
1914228N17144 1914 25 WP MM NOT_NAMED 1914-08-18 06:00:00 NR 18.3786 138.033 main 1509 1485 __________P___ -1 18.3786 138.033 4 7 296
1914228N17144 1914 25 WP MM NOT_NAMED 1914-08-18 09:00:00 NR 18.5389 137.709 main 1485 1481 __________P___ -1 18.5389 137.709 4 7 298
1914228N17144 1914 25 WP MM NOT_NAMED 1914-08-18 10:00:00 NR 18.6000 137.600 main 1481 1467 __________O___ -1 18.6000 137.600 4 8 302
1914228N17144 1914 25 WP MM NOT_NAMED 1914-08-18 12:00:00 NR 18.7464 137.359 main 1467 1447 __________P___ -1 18.7464 137.359 4 8 304
1914228N17144 1914 25 WP MM NOT_NAMED 1914-08-18 15:00:00 NR 18.9914 136.997 main 1447 1428 __________P___ -1 18.9914 136.997 4 8 307
1914228N17144 1914 25 WP MM NOT_NAMED 1914-08-18 18:00:00 NR 19.2528 136.643 main 1428 1401 __________P___ -1 19.2528 136.643 4 8 309
1914228N17144 1914 25 WP MM NOT_NAMED 1914-08-18 21:00:00 NR 19.5151 136.307 main 1401 1387 __________P___ -1 19.5151 136.307 4 8 310
1914228N17144 1914 25 WP MM NOT_NAMED 1914-08-18 22:00:00 NR 19.6000 136.200 main 1387 1359 __________O___ -1 19.6000 136.200 4 8 309
1914228N17144 1914 25 WP MM NOT_NAMED 1914-08-19 00:00:00 NR 19.7529 135.994 main 1359 1326 __________P___ -1 19.7529 135.994 4 7 309
1914228N17144 1914 25 WP MM NOT_NAMED 1914-08-19 03:00:00 NR 19.9761 135.704 main 1326 1294 __________P___ -1 19.9761 135.704 4 7 310
1914228N17144 1914 25 WP MM NOT_NAMED 1914-08-19 06:00:00 NR 20.1973 135.434 main 1294 1266 __________P___ -1 20.1973 135.434 4 7 312
1914228N17144 1914 25 WP MM NOT_NAMED 1914-08-19 09:00:00 NR 20.4228 135.181 main 1266 1252 __________P___ -1 20.4228 135.181 4 7 314
1914228N17144 1914 25 WP MM NOT_NAMED 1914-08-19 10:00:00 NR 20.5000 135.100 main 1252 1224 __________O___ -1 20.5000 135.100 4 7 316
1914228N17144 1914 25 WP MM NOT_NAMED 1914-08-19 12:00:00 NR 20.6635 134.936 main 1224 1196 __________P___ -1 20.6635 134.936 4 7 318
1914228N17144 1914 25 WP MM NOT_NAMED 1914-08-19 15:00:00 NR 20.9151 134.702 main 1196 1158 __________P___ -1 20.9151 134.702 4 7 320
1914228N17144 1914 25 WP MM NOT_NAMED 1914-08-19 18:00:00 NR 21.1690 134.481 main 1158 1130 __________P___ -1 21.1690 134.481 4 6 321
1914228N17144 1914 25 WP MM NOT_NAMED 1914-08-19 21:00:00 NR 21.4187 134.269 main 1130 1116 __________P___ -1 21.4187 134.269 4 6 322
1914228N17144 1914 25 WP MM NOT_NAMED 1914-08-19 22:00:00 NR 21.5000 134.200 main 1116 1092 __________O___ -1 21.5000 134.200 4 6 321
1914228N17144 1914 25 WP MM NOT_NAMED 1914-08-20 00:00:00 NR 21.6503 134.066 main 1092 1064 __________P___ -1 21.6503 134.066 4 6 320
1914228N17144 1914 25 WP MM NOT_NAMED 1914-08-20 03:00:00 NR 21.8695 133.871 main 1064 1037 __________P___ -1 21.8695 133.871 4 6 321
1914228N17144 1914 25 WP MM NOT_NAMED 1914-08-20 06:00:00 NR 22.0894 133.676 main 1037 1010 __________P___ -1 22.0894 133.676 4 6 321
1914228N17144 1914 25 WP MM NOT_NAMED 1914-08-20 09:00:00 NR 22.3194 133.472 main 1010 997 __________P___ -1 22.3194 133.472 4 6 320
1914228N17144 1914 25 WP MM NOT_NAMED 1914-08-20 10:00:00 NR 22.4000 133.400 main 997 970 __________O___ -1 22.4000 133.400 4 7 319
1914228N17144 1914 25 WP MM NOT_NAMED 1914-08-20 12:00:00 NR 22.5746 133.237 main 970 943 __________P___ -1 22.5746 133.237 4 7 319
1914228N17144 1914 25 WP MM NOT_NAMED 1914-08-20 15:00:00 NR 22.8492 132.980 main 943 904 __________P___ -1 22.8492 132.980 4 7 319
1914228N17144 1914 25 WP MM NOT_NAMED 1914-08-20 18:00:00 NR 23.1305 132.721 main 904 867 __________P___ -1 23.1305 132.721 4 7 320
1914228N17144 1914 25 WP MM NOT_NAMED 1914-08-20 21:00:00 NR 23.4093 132.476 main 867 854 __________P___ -1 23.4093 132.476 4 7 322
1914228N17144 1914 25 WP MM NOT_NAMED 1914-08-20 22:00:00 NR 23.5000 132.400 main 854 830 __________O___ -1 23.5000 132.400 4 7 324
1914228N17144 1914 25 WP MM NOT_NAMED 1914-08-21 00:00:00 NR 23.6722 132.266 main 830 804 __________P___ -1 23.6722 132.266 4 6 326
1914228N17144 1914 25 WP MM NOT_NAMED 1914-08-21 03:00:00 NR 23.9244 132.084 main 804 768 __________P___ -1 23.9244 132.084 4 6 328
1914228N17144 1914 25 WP MM NOT_NAMED 1914-08-21 06:00:00 NR 24.1719 131.917 main 768 744 __________P___ -1 24.1719 131.917 4 6 328
1914228N17144 1914 25 WP MM NOT_NAMED 1914-08-21 09:00:00 NR 24.4178 131.754 main 744 732 __________P___ -1 24.4178 131.754 4 6 329
1914228N17144 1914 25 WP MM NOT_NAMED 1914-08-21 10:00:00 NR 24.5000 131.700 main 732 708 __________O___ -1 24.5000 131.700 4 6 327
1914228N17144 1914 25 WP MM NOT_NAMED 1914-08-21 12:00:00 NR 24.6666 131.583 main 708 684 __________P___ -1 24.6666 131.583 4 6 327
1914228N17144 1914 25 WP MM NOT_NAMED 1914-08-21 15:00:00 NR 24.9166 131.408 main 684 649 __________P___ -1 24.9166 131.408 4 6 328
1914228N17144 1914 25 WP MM NOT_NAMED 1914-08-21 18:00:00 NR 25.1666 131.233 main 649 626 __________P___ -1 25.1666 131.233 4 6 328
1914228N17144 1914 25 WP MM NOT_NAMED 1914-08-21 21:00:00 NR 25.4166 131.058 main 626 614 __________P___ -1 25.4166 131.058 4 6 328
1914228N17144 1914 25 WP MM NOT_NAMED 1914-08-21 22:00:00 NR 25.5000 131.000 main 614 592 __________O___ -1 25.5000 131.000 4 6 328
1914228N17144 1914 25 WP MM NOT_NAMED 1914-08-22 00:00:00 NR 25.6614 130.886 main 592 569 __________P___ -1 25.6614 130.886 4 6 328
1914228N17144 1914 25 WP MM NOT_NAMED 1914-08-22 03:00:00 NR 25.9033 130.714 main 569 536 __________P___ -1 25.9033 130.714 4 6 328
1914228N17144 1914 25 WP MM NOT_NAMED 1914-08-22 06:00:00 NR 26.1507 130.541 main 536 514 __________P___ -1 26.1507 130.541 4 6 328
1914228N17144 1914 25 WP MM NOT_NAMED 1914-08-22 09:00:00 NR 26.4099 130.362 main 514 503 __________P___ -1 26.4099 130.362 4 6 328
1914228N17144 1914 25 WP MM NOT_NAMED 1914-08-22 10:00:00 NR 26.5000 130.300 main 503 482 __________O___ -1 26.5000 130.300 4 7 328
1914228N17144 1914 25 WP MM NOT_NAMED 1914-08-22 12:00:00 NR 26.6912 130.167 main 482 451 __________P___ -1 26.6912 130.167 4 7 328
1914228N17144 1914 25 WP MM NOT_NAMED 1914-08-22 15:00:00 NR 26.9907 129.962 main 451 422 __________P___ -1 26.9907 129.962 4 7 329
1914228N17144 1914 25 WP MM NOT_NAMED 1914-08-22 18:00:00 NR 27.2971 129.756 main 422 394 __________P___ -1 27.2971 129.756 4 7 330
1914228N17144 1914 25 WP MM NOT_NAMED 1914-08-22 21:00:00 NR 27.6009 129.561 main 394 386 __________P___ -1 27.6009 129.561 4 7 330
1914228N17144 1914 25 WP MM NOT_NAMED 1914-08-22 22:00:00 NR 27.7000 129.500 main 386 368 __________O___ -1 27.7000 129.500 4 7 332
1914228N17144 1914 25 WP MM NOT_NAMED 1914-08-23 00:00:00 NR 27.8863 129.386 main 368 344 __________P___ -1 27.8863 129.386 4 6 332
1914228N17144 1914 25 WP MM NOT_NAMED 1914-08-23 03:00:00 NR 28.1595 129.227 main 344 328 __________P___ -1 28.1595 129.227 4 6 334
1914228N17144 1914 25 WP MM NOT_NAMED 1914-08-23 06:00:00 NR 28.4308 129.081 main 328 301 __________P___ -1 28.4308 129.081 4 6 335
1914228N17144 1914 25 WP MM NOT_NAMED 1914-08-23 09:00:00 NR 28.7062 128.944 main 305 295 __________P___ -1 28.7062 128.944 4 6 337
1914228N17144 1914 25 WP MM NOT_NAMED 1914-08-23 10:00:00 NR 28.8000 128.900 main 295 279 __________O___ -1 28.8000 128.900 4 6 339
1914228N17144 1914 25 WP MM NOT_NAMED 1914-08-23 12:00:00 NR 28.9916 128.814 main 279 256 __________P___ -1 28.9916 128.814 4 6 339
1914228N17144 1914 25 WP MM NOT_NAMED 1914-08-23 15:00:00 NR 29.2873 128.687 main 256 235 __________P___ -1 29.2873 128.687 4 6 340
1914228N17144 1914 25 WP MM NOT_NAMED 1914-08-23 18:00:00 NR 29.5902 128.563 main 235 217 __________P___ -1 29.5902 128.563 4 6 341
1914228N17144 1914 25 WP MM NOT_NAMED 1914-08-23 21:00:00 NR 29.8973 128.441 main 225 217 __________P___ -1 29.8973 128.441 4 7 341
1914228N17144 1914 25 WP MM NOT_NAMED 1914-08-23 22:00:00 NR 30.0000 128.400 main 217 __________O___ -1 30.0000 128.400 7 7 337

デジタル台風データ・検索

IBTrACS Databaseについて

本データベースは、米国NOAAが公開する1842年以降の世界の熱帯低気圧のベストトラックデータアーカイブInternational Best Track Archive for Climate Stewardship (IBTrACS)を、ウェブで閲覧しやすい形式に変換したものです。

最終更新日:2021-11-26